Time;durP1;ratioP1;P1;durP2;ratioP2;P2;SDS_P1;SDS_P2;PMS_P1;PMS_P2;Temp;Humidity;BMP_temperature;BMP_pressure;BME280_temperature;BME280_humidity;BME280_pressure;Samples;Min_cycle;Max_cycle;Signal;HPM_P1;HPM_P2
2022/07/04 00:01:07;;;;;;;;;;;15.10;99.90;;;;;;5013059;28;19954;-66
2022/07/04 00:03:33;;;;;;;;;;;15.00;99.90;;;;;;5013173;28;19929;-66
2022/07/04 00:06:00;;;;;;;;;;;15.00;99.90;;;;;;5012903;28;20421;-67
2022/07/04 00:08:27;;;;;;;;;;;14.90;99.90;;;;;;5012871;28;19948;-68
2022/07/04 00:10:55;;;;;;;;;;;14.80;99.90;;;;;;5012913;28;20348;-66
2022/07/04 00:13:22;;;;;;;;;;;14.70;99.90;;;;;;5013027;28;19979;-66
2022/07/04 00:15:49;;;;;;;;;;;14.70;99.90;;;;;;5012689;28;19928;-66
2022/07/04 00:18:15;;;;;;;;;;;14.70;99.90;;;;;;5011525;28;19978;-66
2022/07/04 00:20:42;;;;;;;;;;;14.70;99.90;;;;;;5012806;28;19932;-66
2022/07/04 00:23:09;;;;;;;;;;;14.70;99.90;;;;;;5012811;28;19929;-66
2022/07/04 00:25:36;;;;;;;;;;;14.60;99.90;;;;;;5012713;28;19925;-65
2022/07/04 00:28:04;;;;;;;;;;;14.60;99.90;;;;;;5012849;28;19926;-66
2022/07/04 00:30:31;;;;;;;;;;;14.60;99.90;;;;;;5012512;28;19925;-66
2022/07/04 00:32:58;;;;;;;;;;;14.60;99.90;;;;;;5012837;28;19975;-66
2022/07/04 00:35:24;;;;;;;;;;;14.60;99.90;;;;;;5012325;28;19928;-66
2022/07/04 00:37:51;;;;;;;;;;;14.50;99.90;;;;;;5012672;28;19928;-66
2022/07/04 00:40:18;;;;;;;;;;;14.40;99.90;;;;;;5012377;28;19929;-66
2022/07/04 00:42:45;;;;;;;;;;;14.40;99.90;;;;;;5012899;28;19926;-66
2022/07/04 00:45:13;;;;;;;;;;;14.30;99.90;;;;;;5008461;28;19925;-66
2022/07/04 00:47:40;;;;;;;;;;;14.20;99.90;;;;;;5012419;28;20412;-66
2022/07/04 00:50:07;;;;;;;;;;;14.10;99.90;;;;;;5012412;28;20442;-65
2022/07/04 00:52:33;;;;;;;;;;;14.10;99.90;;;;;;5012364;28;19925;-66
2022/07/04 00:55:01;;;;;;;;;;;14.00;99.90;;;;;;5012787;28;19929;-66
2022/07/04 00:57:28;;;;;;;;;;;14.00;99.90;;;;;;5043563;28;20011;-66
2022/07/04 00:59:55;;;;;;;;;;;14.10;99.90;;;;;;5014865;28;19951;-66
2022/07/04 01:02:23;;;;;;;;;;;14.10;99.90;;;;;;5016183;28;19925;-66
2022/07/04 01:04:50;;;;;;;;;;;14.10;99.90;;;;;;5015965;28;19995;-66
2022/07/04 01:07:17;;;;;;;;;;;14.00;99.90;;;;;;5016215;28;19937;-66
2022/07/04 01:09:44;;;;;;;;;;;14.00;99.90;;;;;;5015465;28;19988;-66
2022/07/04 01:12:11;;;;;;;;;;;13.90;99.90;;;;;;5016102;28;19929;-66
2022/07/04 01:14:38;;;;;;;;;;;13.80;99.90;;;;;;5015815;28;20392;-66
2022/07/04 01:17:05;;;;;;;;;;;13.70;99.90;;;;;;5015978;28;19925;-66
2022/07/04 01:19:33;;;;;;;;;;;13.70;99.90;;;;;;5015362;28;20408;-67
2022/07/04 01:22:07;;;;;;;;;;;13.60;99.90;;;;;;5015962;28;20293;-66
2022/07/04 01:24:34;;;;;;;;;;;13.60;99.90;;;;;;5014356;28;19925;-65
2022/07/04 01:27:01;;;;;;;;;;;13.50;99.90;;;;;;5016277;28;19933;-66
2022/07/04 01:29:27;;;;;;;;;;;13.50;99.90;;;;;;5015149;28;20439;-65
2022/07/04 01:31:54;;;;;;;;;;;13.50;99.90;;;;;;5015592;28;19928;-66
2022/07/04 01:34:21;;;;;;;;;;;13.50;99.90;;;;;;5015510;28;19940;-65
2022/07/04 01:36:48;;;;;;;;;;;13.50;99.90;;;;;;5015820;28;20400;-66
2022/07/04 01:39:16;;;;;;;;;;;13.50;99.90;;;;;;5015336;28;19925;-66
2022/07/04 01:41:42;;;;;;;;;;;13.50;99.90;;;;;;5044447;28;20023;-66
2022/07/04 01:44:09;;;;;;;;;;;13.40;99.90;;;;;;5033168;28;20020;-66
2022/07/04 01:46:36;;;;;;;;;;;13.40;99.90;;;;;;5015380;28;20476;-66
2022/07/04 01:49:02;;;;;;;;;;;13.40;99.90;;;;;;5015187;28;20351;-66
2022/07/04 01:51:29;;;;;;;;;;;13.30;99.90;;;;;;5046746;28;19980;-65
2022/07/04 01:53:56;;;;;;;;;;;13.10;99.90;;;;;;5015281;28;19948;-66
2022/07/04 01:56:24;;;;;;;;;;;12.80;99.90;;;;;;5031179;28;19929;-65
2022/07/04 01:58:51;;;;;;;;;;;12.80;99.90;;;;;;5033043;28;20396;-66
2022/07/04 02:01:32;;;;;;;;;;;12.80;99.90;;;;;;5015216;28;19925;-67
2022/07/04 02:03:59;;;;;;;;;;;12.90;99.90;;;;;;5015017;28;19925;-67
2022/07/04 02:06:26;;;;;;;;;;;12.80;99.90;;;;;;5048243;28;19932;-67
2022/07/04 02:14:31;;;;;;;;;;;12.80;99.90;;;;;;4997208;28;20016;-67
2022/07/04 02:16:58;;;;;;;;;;;12.80;99.90;;;;;;5015089;28;19925;-66
2022/07/04 02:19:24;;;;;;;;;;;12.80;99.90;;;;;;5014553;28;19925;-68
2022/07/04 02:21:51;;;;;;;;;;;12.70;99.90;;;;;;5014821;28;19933;-67
2022/07/04 02:24:18;;;;;;;;;;;12.70;99.90;;;;;;5014292;28;19932;-66
2022/07/04 02:26:47;;;;;;;;;;;12.70;99.90;;;;;;5014777;28;19925;-67
2022/07/04 02:29:14;;;;;;;;;;;12.60;99.90;;;;;;5014453;28;19931;-67
2022/07/04 02:31:40;;;;;;;;;;;12.60;99.90;;;;;;5014563;28;20316;-66
2022/07/04 02:34:07;;;;;;;;;;;12.60;99.90;;;;;;5014598;28;19929;-67
2022/07/04 02:36:34;;;;;;;;;;;12.70;99.90;;;;;;5013907;28;19925;-66
2022/07/04 02:39:00;;;;;;;;;;;12.70;99.90;;;;;;5013683;28;19925;-66
2022/07/04 02:41:27;;;;;;;;;;;12.70;99.90;;;;;;5014347;28;19999;-66
2022/07/04 02:43:55;;;;;;;;;;;12.70;99.90;;;;;;5014105;28;19929;-67
2022/07/04 02:46:22;;;;;;;;;;;12.80;99.90;;;;;;5014340;28;19925;-68
2022/07/04 02:48:49;;;;;;;;;;;12.70;99.90;;;;;;5014169;28;20019;-66
2022/07/04 02:51:16;;;;;;;;;;;12.70;99.90;;;;;;5014183;28;20330;-67
2022/07/04 02:53:43;;;;;;;;;;;12.70;99.90;;;;;;5014140;28;19983;-67
2022/07/04 02:56:10;;;;;;;;;;;12.70;99.90;;;;;;5013855;28;20001;-67
2022/07/04 02:58:37;;;;;;;;;;;12.70;99.90;;;;;;5014102;28;19925;-67
2022/07/04 03:01:05;;;;;;;;;;;12.70;99.90;;;;;;5013871;28;19948;-67
2022/07/04 03:03:31;;;;;;;;;;;12.70;99.90;;;;;;5013958;28;19929;-67
2022/07/04 03:05:58;;;;;;;;;;;12.60;99.90;;;;;;5014030;28;19932;-67
2022/07/04 03:08:25;;;;;;;;;;;12.60;99.90;;;;;;5013800;28;19929;-67
2022/07/04 03:10:52;;;;;;;;;;;12.60;99.90;;;;;;5013674;28;19929;-66
2022/07/04 03:13:19;;;;;;;;;;;12.40;99.90;;;;;;5013986;28;19925;-67
2022/07/04 03:15:46;;;;;;;;;;;12.40;99.90;;;;;;5013997;28;19933;-66
2022/07/04 03:18:14;;;;;;;;;;;12.40;99.90;;;;;;5013570;28;19925;-66
2022/07/04 03:20:41;;;;;;;;;;;12.30;99.90;;;;;;5013568;28;19929;-67
2022/07/04 03:23:08;;;;;;;;;;;12.30;99.90;;;;;;5013204;28;19925;-67
2022/07/04 03:25:35;;;;;;;;;;;12.20;99.90;;;;;;5013888;28;19933;-66
2022/07/04 03:28:02;;;;;;;;;;;12.20;99.90;;;;;;5013490;28;19929;-67
2022/07/04 03:30:28;;;;;;;;;;;12.20;99.90;;;;;;5011520;28;19929;-67
2022/07/04 03:32:55;;;;;;;;;;;12.10;99.90;;;;;;5013576;28;19932;-66
2022/07/04 03:35:24;;;;;;;;;;;12.00;99.90;;;;;;5013210;28;19936;-67
2022/07/04 03:37:50;;;;;;;;;;;12.00;99.90;;;;;;5013238;28;19925;-67
2022/07/04 03:40:17;;;;;;;;;;;12.00;99.90;;;;;;5013151;28;19979;-67
2022/07/04 03:42:44;;;;;;;;;;;12.00;99.90;;;;;;5007382;28;20397;-67
2022/07/04 03:45:11;;;;;;;;;;;12.00;99.90;;;;;;5012994;28;19925;-67
2022/07/04 03:47:38;;;;;;;;;;;12.00;99.90;;;;;;5045621;28;19933;-67
2022/07/04 03:50:05;;;;;;;;;;;12.00;99.90;;;;;;5013201;28;19952;-67
2022/07/04 03:52:34;;;;;;;;;;;12.00;99.90;;;;;;5012866;28;19929;-67
2022/07/04 03:55:00;;;;;;;;;;;12.00;99.90;;;;;;5013213;28;19925;-66
2022/07/04 03:57:27;;;;;;;;;;;12.10;99.90;;;;;;5012787;28;20362;-67
2022/07/04 03:59:54;;;;;;;;;;;12.10;99.90;;;;;;5013051;28;19956;-67
2022/07/04 04:02:20;;;;;;;;;;;12.20;99.90;;;;;;5008257;28;20412;-66
2022/07/04 04:07:32;;;;;;;;;;;12.20;99.90;;;;;;5044418;28;20011;-67
2022/07/04 04:10:00;;;;;;;;;;;12.30;99.90;;;;;;5013112;28;19936;-67
2022/07/04 04:12:26;;;;;;;;;;;12.30;99.90;;;;;;5013002;28;19925;-66
2022/07/04 04:14:53;;;;;;;;;;;12.40;99.90;;;;;;5030687;28;20393;-67
2022/07/04 04:17:20;;;;;;;;;;;12.40;99.90;;;;;;5011764;28;20348;-67
2022/07/04 04:19:47;;;;;;;;;;;12.40;99.90;;;;;;5012466;28;20393;-67
2022/07/04 04:22:13;;;;;;;;;;;12.50;99.90;;;;;;5012770;28;19975;-67
2022/07/04 04:24:40;;;;;;;;;;;12.50;99.90;;;;;;5012494;28;19929;-66
2022/07/04 04:27:08;;;;;;;;;;;12.50;99.90;;;;;;5032320;28;19925;-67
2022/07/04 04:29:35;;;;;;;;;;;12.60;99.90;;;;;;5012497;28;19930;-68
2022/07/04 04:32:02;;;;;;;;;;;12.60;99.90;;;;;;5012680;28;19933;-67
2022/07/04 04:34:29;;;;;;;;;;;12.70;99.90;;;;;;5012839;28;19932;-67
2022/07/04 04:36:56;;;;;;;;;;;12.70;99.90;;;;;;5043573;28;19925;-67
2022/07/04 04:39:22;;;;;;;;;;;12.80;99.90;;;;;;5016481;28;20355;-68
2022/07/04 04:41:49;;;;;;;;;;;12.80;99.90;;;;;;5016625;28;19933;-67
2022/07/04 04:44:19;;;;;;;;;;;12.90;99.90;;;;;;5016379;28;20051;-68
2022/07/04 04:46:46;;;;;;;;;;;12.80;99.90;;;;;;5016761;28;20375;-67
2022/07/04 04:49:12;;;;;;;;;;;12.80;99.90;;;;;;5016122;28;19983;-67
2022/07/04 04:51:40;;;;;;;;;;;12.80;99.90;;;;;;5016548;28;19925;-67
2022/07/04 04:54:06;;;;;;;;;;;12.90;99.90;;;;;;5016239;28;19933;-67
2022/07/04 04:56:33;;;;;;;;;;;13.10;99.90;;;;;;5016417;28;19926;-67
2022/07/04 04:59:00;;;;;;;;;;;13.20;99.90;;;;;;5016225;28;19925;-67
2022/07/04 05:01:28;;;;;;;;;;;13.20;99.90;;;;;;5013924;28;19937;-68
2022/07/04 05:03:55;;;;;;;;;;;13.30;99.90;;;;;;5014361;28;19925;-67
2022/07/04 05:06:22;;;;;;;;;;;13.40;99.90;;;;;;5016270;28;19925;-67
2022/07/04 05:08:49;;;;;;;;;;;13.30;99.90;;;;;;5015904;28;19937;-67
2022/07/04 05:11:15;;;;;;;;;;;13.40;99.90;;;;;;5033819;28;19925;-67
2022/07/04 05:13:42;;;;;;;;;;;13.40;99.90;;;;;;5015767;28;19987;-67
2022/07/04 05:16:09;;;;;;;;;;;13.50;99.90;;;;;;5016381;28;19925;-67
2022/07/04 05:18:37;;;;;;;;;;;13.60;99.90;;;;;;5016015;28;20345;-68
2022/07/04 05:21:04;;;;;;;;;;;13.70;99.90;;;;;;5016277;28;19925;-68
2022/07/04 05:23:31;;;;;;;;;;;13.80;99.90;;;;;;5013712;28;20440;-67
2022/07/04 05:25:57;;;;;;;;;;;13.90;99.90;;;;;;5013584;28;20058;-67
2022/07/04 05:28:24;;;;;;;;;;;14.00;99.90;;;;;;5048257;28;19925;-68
2022/07/04 05:30:51;;;;;;;;;;;14.00;99.90;;;;;;5015172;28;19952;-68
2022/07/04 05:33:18;;;;;;;;;;;14.10;99.90;;;;;;5015432;28;20347;-68
2022/07/04 05:35:46;;;;;;;;;;;14.10;99.90;;;;;;5014498;28;19939;-67
2022/07/04 05:38:13;;;;;;;;;;;14.10;99.90;;;;;;5016529;28;19944;-68
2022/07/04 05:40:40;;;;;;;;;;;14.20;99.90;;;;;;5014675;28;19925;-67
2022/07/04 05:43:07;;;;;;;;;;;14.40;99.90;;;;;;5014585;28;20373;-68
2022/07/04 05:45:33;;;;;;;;;;;14.50;99.90;;;;;;5013688;28;19925;-67
2022/07/04 05:48:00;;;;;;;;;;;14.60;99.90;;;;;;5013379;28;19929;-68
2022/07/04 05:50:27;;;;;;;;;;;14.80;99.90;;;;;;5010111;28;19929;-67
2022/07/04 05:52:55;;;;;;;;;;;14.90;99.90;;;;;;5014673;28;20608;-68
2022/07/04 05:55:22;;;;;;;;;;;15.00;99.90;;;;;;5012071;28;19929;-68
2022/07/04 05:57:48;;;;;;;;;;;15.20;99.90;;;;;;5010806;28;20340;-68
2022/07/04 06:00:15;;;;;;;;;;;15.30;99.90;;;;;;5007023;28;19976;-67
2022/07/04 06:02:42;;;;;;;;;;;15.40;99.90;;;;;;5005492;28;20344;-76
2022/07/04 06:05:09;;;;;;;;;;;15.60;99.90;;;;;;5009027;28;19933;-68
2022/07/04 06:07:37;;;;;;;;;;;15.70;99.90;;;;;;5010900;28;19925;-69
2022/07/04 06:10:06;;;;;;;;;;;15.80;99.90;;;;;;5014252;28;20353;-68
2022/07/04 06:12:33;;;;;;;;;;;15.90;99.90;;;;;;5014535;28;19925;-68
2022/07/04 06:15:00;;;;;;;;;;;16.00;99.90;;;;;;5014281;28;19975;-68
2022/07/04 06:17:27;;;;;;;;;;;16.10;99.90;;;;;;5047835;28;19987;-68
2022/07/04 06:19:54;;;;;;;;;;;16.20;99.90;;;;;;5014010;28;19929;-68
2022/07/04 06:22:21;;;;;;;;;;;16.30;99.90;;;;;;5047974;28;19969;-68
2022/07/04 06:24:47;;;;;;;;;;;16.40;99.90;;;;;;5013839;28;19925;-68
2022/07/04 06:27:15;;;;;;;;;;;16.50;99.90;;;;;;5047820;28;19936;-67
2022/07/04 06:29:42;;;;;;;;;;;16.60;99.90;;;;;;5013228;28;19948;-68
2022/07/04 06:32:09;;;;;;;;;;;16.60;99.90;;;;;;5041273;28;19926;-68
2022/07/04 06:37:20;;;;;;;;;;;16.70;99.90;;;;;;5013348;28;20012;-69
2022/07/04 06:39:47;;;;;;;;;;;16.80;99.90;;;;;;5014197;28;20024;-68
2022/07/04 06:42:13;;;;;;;;;;;17.00;99.90;;;;;;5014236;28;19925;-67
2022/07/04 06:44:42;;;;;;;;;;;17.00;99.90;;;;;;5013668;28;20005;-68
2022/07/04 06:47:08;;;;;;;;;;;17.10;99.90;;;;;;5044271;28;19928;-66
2022/07/04 06:49:35;;;;;;;;;;;17.10;99.90;;;;;;5009474;28;20380;-67
2022/07/04 06:52:02;;;;;;;;;;;17.20;99.90;;;;;;5013747;28;20347;-70
2022/07/04 06:54:29;;;;;;;;;;;17.40;99.90;;;;;;5012571;28;19926;-67
2022/07/04 06:56:57;;;;;;;;;;;17.50;99.90;;;;;;5013809;28;20231;-67
2022/07/04 06:59:24;;;;;;;;;;;17.60;99.90;;;;;;5009777;28;20454;-67
2022/07/04 07:01:52;;;;;;;;;;;17.60;99.90;;;;;;5014052;28;20352;-67
2022/07/04 07:04:19;;;;;;;;;;;17.70;99.90;;;;;;5012886;28;19929;-68
2022/07/04 07:06:46;;;;;;;;;;;17.80;99.90;;;;;;5013740;28;19925;-68
2022/07/04 07:09:12;;;;;;;;;;;17.80;99.90;;;;;;5013269;28;19975;-67
2022/07/04 07:11:39;;;;;;;;;;;17.90;99.90;;;;;;5012122;28;19953;-67
2022/07/04 07:14:06;;;;;;;;;;;17.80;99.90;;;;;;5013441;28;19929;-69
2022/07/04 07:16:32;;;;;;;;;;;17.90;99.90;;;;;;5014004;28;19975;-68
2022/07/04 07:19:01;;;;;;;;;;;18.10;99.90;;;;;;5046529;28;20408;-67
2022/07/04 07:21:27;;;;;;;;;;;18.10;99.90;;;;;;5008472;28;19929;-68
2022/07/04 07:23:55;;;;;;;;;;;18.20;99.90;;;;;;5044777;28;19929;-68
2022/07/04 07:26:22;;;;;;;;;;;18.20;99.90;;;;;;5012053;28;19975;-67
2022/07/04 07:28:48;;;;;;;;;;;18.40;99.90;;;;;;5012031;28;19932;-67
2022/07/04 07:31:15;;;;;;;;;;;18.40;99.90;;;;;;5010249;28;19925;-68
2022/07/04 07:33:42;;;;;;;;;;;18.50;99.90;;;;;;5047164;28;19971;-67
2022/07/04 07:36:10;;;;;;;;;;;18.50;99.90;;;;;;5014087;28;19952;-67
2022/07/04 07:38:37;;;;;;;;;;;18.60;99.90;;;;;;5012981;28;19932;-68
2022/07/04 07:41:03;;;;;;;;;;;18.60;99.90;;;;;;5012707;28;19925;-66
2022/07/04 07:43:30;;;;;;;;;;;18.50;99.90;;;;;;5012823;28;20340;-67
2022/07/04 07:45:57;;;;;;;;;;;18.70;99.90;;;;;;5014354;28;19932;-67
2022/07/04 07:48:24;;;;;;;;;;;18.70;99.90;;;;;;5013103;28;19937;-67
2022/07/04 07:50:50;;;;;;;;;;;18.70;99.90;;;;;;5012662;28;19972;-67
2022/07/04 07:53:19;;;;;;;;;;;18.80;99.90;;;;;;5013236;28;20455;-66
2022/07/04 07:55:45;;;;;;;;;;;18.90;99.90;;;;;;5012775;28;19929;-67
2022/07/04 07:58:12;;;;;;;;;;;18.90;99.90;;;;;;5013150;28;19929;-67
2022/07/04 08:00:39;;;;;;;;;;;18.90;99.90;;;;;;5012416;28;19987;-67
2022/07/04 08:05:50;;;;;;;;;;;19.10;99.90;;;;;;5042080;28;20304;-67
2022/07/04 08:08:16;;;;;;;;;;;19.20;99.90;;;;;;5030216;28;19929;-67
2022/07/04 08:10:45;;;;;;;;;;;19.20;99.90;;;;;;5007166;28;19925;-67
2022/07/04 08:13:12;;;;;;;;;;;19.40;99.90;;;;;;5013195;28;19951;-67
2022/07/04 08:15:38;;;;;;;;;;;19.30;99.90;;;;;;5012843;28;19925;-67
2022/07/04 08:18:05;;;;;;;;;;;19.40;99.90;;;;;;5012875;28;19929;-67
2022/07/04 08:20:32;;;;;;;;;;;19.50;99.90;;;;;;5012917;28;19925;-66
2022/07/04 08:22:59;;;;;;;;;;;19.50;99.90;;;;;;5012692;28;19933;-66
2022/07/04 08:25:25;;;;;;;;;;;19.40;99.90;;;;;;5012694;28;20313;-67
2022/07/04 08:27:54;;;;;;;;;;;19.50;99.90;;;;;;5013146;28;19925;-67
2022/07/04 08:30:20;;;;;;;;;;;19.60;99.90;;;;;;5013245;28;19929;-67
2022/07/04 08:32:47;;;;;;;;;;;19.70;99.90;;;;;;5012842;28;19929;-67
2022/07/04 08:35:14;;;;;;;;;;;19.80;99.90;;;;;;5009880;28;19929;-66
2022/07/04 08:37:41;;;;;;;;;;;19.70;99.90;;;;;;5012603;28;19932;-67
2022/07/04 08:40:09;;;;;;;;;;;19.90;99.90;;;;;;5005950;28;19925;-66
2022/07/04 08:42:36;;;;;;;;;;;20.00;99.90;;;;;;5011824;28;19929;-67
2022/07/04 08:45:05;;;;;;;;;;;20.10;99.90;;;;;;5012000;28;20363;-67
2022/07/04 08:47:33;;;;;;;;;;;20.10;99.90;;;;;;5012577;28;19925;-68
2022/07/04 08:50:10;;;;;;;;;;;20.20;99.90;;;;;;5012349;28;19929;-66
2022/07/04 08:52:37;;;;;;;;;;;20.10;99.90;;;;;;5010916;28;19964;-66
2022/07/04 09:00:36;;;;;;;;;;;20.30;99.90;;;;;;5043121;28;19921;-68
2022/07/04 09:03:03;;;;;;;;;;;20.40;99.90;;;;;;5012368;28;19929;-66
2022/07/04 09:05:31;;;;;;;;;;;20.60;99.90;;;;;;5012403;28;19925;-67
2022/07/04 09:07:58;;;;;;;;;;;20.80;99.90;;;;;;5012161;28;19925;-66
2022/07/04 09:10:25;;;;;;;;;;;20.90;99.90;;;;;;5011616;28;19937;-67
2022/07/04 09:12:53;;;;;;;;;;;20.90;99.90;;;;;;5010295;28;19934;-66
2022/07/04 09:15:20;;;;;;;;;;;20.70;99.90;;;;;;5012201;28;19987;-66
2022/07/04 09:17:48;;;;;;;;;;;20.90;99.90;;;;;;5013247;28;19925;-66
2022/07/04 09:20:16;;;;;;;;;;;20.90;99.90;;;;;;5014395;28;20000;-66
2022/07/04 09:22:43;;;;;;;;;;;21.20;99.90;;;;;;5013637;28;19925;-67
2022/07/04 09:25:12;;;;;;;;;;;21.40;99.90;;;;;;5016729;28;19926;-66
2022/07/04 09:27:41;;;;;;;;;;;21.30;99.90;;;;;;5015971;28;19932;-67
2022/07/04 09:30:09;;;;;;;;;;;21.50;99.90;;;;;;5046445;28;20024;-66
2022/07/04 09:32:37;;;;;;;;;;;21.70;99.90;;;;;;5016347;28;20400;-66
2022/07/04 09:35:06;;;;;;;;;;;21.50;99.90;;;;;;5016565;28;20008;-66
2022/07/04 09:37:37;;;;;;;;;;;21.30;99.90;;;;;;5016497;28;20036;-66
2022/07/04 09:40:05;;;;;;;;;;;21.20;99.90;;;;;;5016171;28;20393;-66
2022/07/04 09:42:42;;;;;;;;;;;21.30;99.90;;;;;;5023218;28;19925;-68
2022/07/04 09:45:10;;;;;;;;;;;21.20;99.90;;;;;;5009470;28;19980;-67
2022/07/04 09:47:37;;;;;;;;;;;21.30;99.90;;;;;;5015822;28;19929;-67
2022/07/04 09:50:07;;;;;;;;;;;21.40;99.90;;;;;;5016266;28;19975;-67
2022/07/04 09:52:45;;;;;;;;;;;21.50;99.90;;;;;;5016522;28;20385;-68
2022/07/04 09:55:11;;;;;;;;;;;21.60;99.90;;;;;;5016145;28;19925;-66
2022/07/04 09:57:38;;;;;;;;;;;21.70;99.90;;;;;;5015779;28;19991;-66
2022/07/04 10:00:18;;;;;;;;;;;21.70;99.90;;;;;;5015627;28;19980;-66
2022/07/04 10:02:45;;;;;;;;;;;21.60;99.90;;;;;;5014890;28;19925;-66
2022/07/04 10:05:18;;;;;;;;;;;21.80;99.90;;;;;;5019364;28;20286;-66
2022/07/04 10:07:47;;;;;;;;;;;22.00;99.90;;;;;;5013965;28;20344;-65
2022/07/04 10:10:22;;;;;;;;;;;22.00;99.90;;;;;;5015478;28;20320;-66
2022/07/04 10:12:49;;;;;;;;;;;22.00;99.90;;;;;;5016247;28;20307;-67
2022/07/04 10:15:16;;;;;;;;;;;22.10;99.90;;;;;;5016020;28;20420;-67
2022/07/04 10:17:43;;;;;;;;;;;22.00;99.90;;;;;;5019718;28;19926;-67
2022/07/04 10:20:11;;;;;;;;;;;22.00;99.90;;;;;;5015572;28;19925;-67
2022/07/04 10:22:40;;;;;;;;;;;22.00;99.90;;;;;;5015575;28;19937;-67
2022/07/04 10:25:08;;;;;;;;;;;21.90;99.90;;;;;;5015739;28;19929;-67
2022/07/04 10:27:35;;;;;;;;;;;21.80;99.90;;;;;;5015452;28;19925;-68
2022/07/04 10:30:03;;;;;;;;;;;21.80;99.90;;;;;;5014907;28;20392;-67
2022/07/04 10:32:30;;;;;;;;;;;22.20;99.90;;;;;;5014413;28;19933;-67
2022/07/04 10:34:57;;;;;;;;;;;22.40;99.90;;;;;;5015288;28;19928;-66
2022/07/04 10:37:24;;;;;;;;;;;22.70;99.90;;;;;;5015515;28;19932;-67
2022/07/04 10:39:52;;;;;;;;;;;23.00;99.90;;;;;;5014638;28;19997;-66
2022/07/04 10:42:23;;;;;;;;;;;22.90;99.90;;;;;;5015450;28;19929;-67
2022/07/04 10:44:50;;;;;;;;;;;23.00;99.90;;;;;;5015086;28;19926;-66
2022/07/04 10:47:23;;;;;;;;;;;22.90;99.90;;;;;;5015553;28;19936;-66
2022/07/04 10:49:51;;;;;;;;;;;22.80;99.90;;;;;;5008109;28;19925;-66
2022/07/04 10:52:18;;;;;;;;;;;23.00;99.90;;;;;;5014646;28;19929;-67
2022/07/04 10:54:46;;;;;;;;;;;23.10;99.90;;;;;;5012580;28;19929;-68
2022/07/04 10:57:15;;;;;;;;;;;23.40;99.90;;;;;;5010145;28;20016;-68
2022/07/04 10:59:42;;;;;;;;;;;23.70;99.90;;;;;;5014389;28;20443;-66
2022/07/04 11:02:24;;;;;;;;;;;23.60;99.90;;;;;;5047270;28;20356;-67
2022/07/04 11:04:55;;;;;;;;;;;23.30;99.90;;;;;;5012517;28;19929;-67
2022/07/04 11:07:23;;;;;;;;;;;23.00;99.90;;;;;;5014454;28;19929;-68
2022/07/04 11:10:04;;;;;;;;;;;23.20;99.90;;;;;;5014153;28;19932;-68
2022/07/04 11:12:32;;;;;;;;;;;23.50;99.90;;;;;;5014055;28;19933;-67
2022/07/04 11:14:59;;;;;;;;;;;23.70;99.90;;;;;;5045165;28;20001;-67
2022/07/04 11:17:32;;;;;;;;;;;23.90;99.90;;;;;;5014433;28;20297;-68
2022/07/04 11:20:00;;;;;;;;;;;23.80;99.90;;;;;;5011517;28;19968;-67
2022/07/04 11:22:27;;;;;;;;;;;23.90;99.90;;;;;;5014278;28;19933;-67
2022/07/04 11:24:54;;;;;;;;;;;24.00;99.90;;;;;;5014160;28;19933;-68
2022/07/04 11:27:21;;;;;;;;;;;23.90;99.90;;;;;;5046942;28;20400;-67
2022/07/04 11:29:52;;;;;;;;;;;24.20;99.90;;;;;;5013730;28;19928;-68
2022/07/04 11:32:18;;;;;;;;;;;24.50;99.90;;;;;;5039408;28;19961;-67
2022/07/04 11:34:46;;;;;;;;;;;24.10;99.90;;;;;;5014248;28;19929;-67
2022/07/04 11:37:13;;;;;;;;;;;23.90;99.90;;;;;;5014421;28;19925;-67
2022/07/04 11:39:39;;;;;;;;;;;24.00;99.90;;;;;;5014444;28;19925;-68
2022/07/04 11:45:04;;;;;;;;;;;26.00;99.90;;;;;;5041802;28;20332;-67
2022/07/04 11:47:33;;;;;;;;;;;26.40;99.90;;;;;;5014409;28;19925;-66
2022/07/04 11:50:01;;;;;;;;;;;27.50;99.90;;;;;;5014272;28;20336;-66
2022/07/04 11:52:28;;;;;;;;;;;27.00;99.90;;;;;;5014359;28;19940;-67
2022/07/04 11:54:56;;;;;;;;;;;26.60;99.90;;;;;;5014321;28;19929;-67
2022/07/04 11:57:23;;;;;;;;;;;27.00;99.90;;;;;;5014392;28;20016;-67
2022/07/04 11:59:55;;;;;;;;;;;28.30;99.90;;;;;;5014299;28;19925;-67
2022/07/04 12:02:22;;;;;;;;;;;29.30;99.90;;;;;;5014222;28;20432;-67
2022/07/04 12:04:48;;;;;;;;;;;30.20;99.90;;;;;;5014305;28;19960;-67
2022/07/04 12:07:16;;;;;;;;;;;31.70;99.90;;;;;;5014470;28;19933;-67
2022/07/04 12:09:43;;;;;;;;;;;32.20;99.90;;;;;;5013898;28;20045;-68
2022/07/04 12:12:10;;;;;;;;;;;30.90;99.90;;;;;;5014436;28;19925;-67
2022/07/04 12:14:37;;;;;;;;;;;30.90;99.90;;;;;;5006364;28;19967;-67
2022/07/04 12:17:13;;;;;;;;;;;30.90;99.90;;;;;;5013757;28;19925;-67
2022/07/04 12:19:49;;;;;;;;;;;30.10;99.90;;;;;;5013586;28;20020;-67
2022/07/04 12:22:24;;;;;;;;;;;30.30;99.90;;;;;;5031646;28;19972;-67
2022/07/04 12:24:51;;;;;;;;;;;30.70;99.90;;;;;;5029887;28;19925;-67
2022/07/04 12:27:18;;;;;;;;;;;30.70;99.90;;;;;;5014079;28;19929;-67
2022/07/04 12:29:49;;;;;;;;;;;31.00;99.90;;;;;;5013446;28;19955;-67
2022/07/04 12:32:17;;;;;;;;;;;32.60;99.90;;;;;;5013722;28;19975;-67
2022/07/04 12:34:45;;;;;;;;;;;34.40;99.90;;;;;;5016288;28;19925;-67
2022/07/04 12:37:13;;;;;;;;;;;34.70;99.90;;;;;;5014197;28;19995;-67
2022/07/04 12:39:40;;;;;;;;;;;35.30;99.90;;;;;;5046760;28;19929;-66
2022/07/04 12:42:08;;;;;;;;;;;35.00;99.90;;;;;;5014052;28;19925;-67
2022/07/04 12:44:35;;;;;;;;;;;33.70;99.90;;;;;;5013674;28;19968;-66
2022/07/04 12:47:03;;;;;;;;;;;32.50;99.90;;;;;;5013940;28;19929;-66
2022/07/04 12:49:32;;;;;;;;;;;30.80;99.90;;;;;;5039886;28;19948;-66
2022/07/04 12:52:09;;;;;;;;;;;29.20;99.90;;;;;;5014036;28;19933;-66
2022/07/04 12:54:36;;;;;;;;;;;28.70;99.90;;;;;;5012205;28;19933;-66
2022/07/04 12:57:04;;;;;;;;;;;28.50;99.90;;;;;;5017222;28;20425;-67
2022/07/04 12:59:31;;;;;;;;;;;28.40;99.90;;;;;;5015249;28;19940;-66
2022/07/04 13:01:58;;;;;;;;;;;29.50;99.90;;;;;;5015803;28;19929;-67
2022/07/04 13:04:24;;;;;;;;;;;29.50;99.90;;;;;;5009238;28;19929;-67
2022/07/04 13:06:53;;;;;;;;;;;28.30;99.90;;;;;;5050438;28;19925;-66
2022/07/04 13:09:20;;;;;;;;;;;27.70;99.90;;;;;;5013217;28;19925;-67
2022/07/04 13:14:33;;;;;;;;;;;29.10;99.90;;;;;;4996067;28;20414;-66
2022/07/04 13:17:00;;;;;;;;;;;28.90;99.90;;;;;;5017293;28;19929;-67
2022/07/04 13:19:27;;;;;;;;;;;28.30;99.90;;;;;;5016983;28;19925;-67
2022/07/04 13:21:55;;;;;;;;;;;27.90;99.90;;;;;;5016792;28;19932;-66
2022/07/04 13:24:22;;;;;;;;;;;27.70;99.90;;;;;;5014747;28;19925;-66
2022/07/04 13:26:49;;;;;;;;;;;27.40;99.90;;;;;;5017179;28;19940;-66
2022/07/04 13:29:16;;;;;;;;;;;27.20;99.90;;;;;;5016490;28;19987;-67
2022/07/04 13:31:42;;;;;;;;;;;27.40;99.90;;;;;;5016820;28;20332;-67
2022/07/04 13:34:09;;;;;;;;;;;28.80;99.90;;;;;;5015902;28;19929;-67
2022/07/04 13:36:36;;;;;;;;;;;30.30;99.90;;;;;;5020437;28;19929;-67
2022/07/04 13:39:04;;;;;;;;;;;31.20;99.90;;;;;;5015865;28;20282;-67
2022/07/04 13:41:31;;;;;;;;;;;30.70;99.90;;;;;;5016803;28;19925;-67
2022/07/04 13:43:58;;;;;;;;;;;29.50;99.90;;;;;;5015353;28;19952;-67
2022/07/04 13:46:25;;;;;;;;;;;30.00;99.90;;;;;;5015120;28;19925;-67
2022/07/04 13:48:51;;;;;;;;;;;31.30;99.90;;;;;;5015958;28;19925;-67
2022/07/04 13:51:18;;;;;;;;;;;31.30;99.90;;;;;;5014548;28;20361;-66
2022/07/04 13:53:45;;;;;;;;;;;30.30;99.90;;;;;;5015488;28;19944;-66
2022/07/04 13:56:16;;;;;;;;;;;29.30;99.90;;;;;;5016601;28;19954;-67
2022/07/04 13:58:44;;;;;;;;;;;28.50;99.90;;;;;;5013929;28;19925;-67
2022/07/04 14:01:11;;;;;;;;;;;27.80;99.90;;;;;;5016236;28;19929;-67
2022/07/04 14:03:38;;;;;;;;;;;28.10;99.90;;;;;;5016047;28;19937;-68
2022/07/04 14:06:05;;;;;;;;;;;29.60;99.90;;;;;;5015715;28;19925;-67
2022/07/04 14:08:31;;;;;;;;;;;30.80;99.90;;;;;;5015017;28;20408;-68
2022/07/04 14:10:58;;;;;;;;;;;31.50;99.90;;;;;;5015650;28;19929;-67
2022/07/04 14:13:26;;;;;;;;;;;29.90;99.90;;;;;;5015742;28;19971;-68
2022/07/04 14:15:53;;;;;;;;;;;29.10;99.90;;;;;;5016117;28;19952;-67
2022/07/04 14:18:20;;;;;;;;;;;28.10;99.90;;;;;;5015886;28;20354;-67
2022/07/04 14:20:48;;;;;;;;;;;28.50;99.90;;;;;;5013416;28;19967;-67
2022/07/04 14:23:39;;;;;;;;;;;28.60;99.90;;;;;;5014539;28;19931;-67
2022/07/04 14:26:02;;;;;;;;;;;29.60;99.90;;;;;;5014209;28;19925;-68
2022/07/04 14:28:30;;;;;;;;;;;30.20;99.90;;;;;;5011644;28;20055;-69
2022/07/04 14:30:57;;;;;;;;;;;31.30;99.90;;;;;;5014389;28;19925;-67
2022/07/04 14:33:23;;;;;;;;;;;32.20;99.90;;;;;;5014273;28;19972;-68
2022/07/04 14:35:50;;;;;;;;;;;32.90;99.90;;;;;;5031940;28;20021;-66
2022/07/04 14:38:17;;;;;;;;;;;33.20;99.90;;;;;;5014475;28;20027;-67
2022/07/04 14:40:46;;;;;;;;;;;33.50;99.90;;;;;;5004715;28;19925;-66
2022/07/04 14:43:13;;;;;;;;;;;33.40;99.90;;;;;;5011796;28;19925;-66